createdAt,value
2022-12-04T00:01:21.131Z,29.80
2022-12-04T00:03:48.383Z,29.57
2022-12-04T00:06:19.294Z,30.63
2022-12-04T00:08:47.577Z,28.90
2022-12-04T00:11:17.250Z,30.07
2022-12-04T00:13:44.510Z,29.23
2022-12-04T00:16:14.379Z,29.47
2022-12-04T00:18:41.370Z,28.97
2022-12-04T00:21:11.218Z,28.97
2022-12-04T00:23:38.966Z,29.23
2022-12-04T00:26:09.148Z,28.50
2022-12-04T00:28:36.811Z,28.20
2022-12-04T00:31:09.327Z,29.17
2022-12-04T00:33:36.641Z,28.57
2022-12-04T00:36:07.396Z,28.27
2022-12-04T00:38:34.324Z,27.63
2022-12-04T00:41:01.046Z,26.00
2022-12-04T00:43:28.818Z,26.33
2022-12-04T00:45:56.212Z,27.23
2022-12-04T00:48:23.375Z,27.47
2022-12-04T00:50:50.271Z,26.67
2022-12-04T00:53:17.048Z,27.53
2022-12-04T00:55:44.390Z,25.70
2022-12-04T00:58:11.274Z,27.43
2022-12-04T01:00:40.440Z,27.30
2022-12-04T01:03:08.870Z,27.27
2022-12-04T01:05:44.671Z,26.07
2022-12-04T01:08:12.495Z,27.20
2022-12-04T01:10:41.279Z,26.30
2022-12-04T01:13:08.198Z,27.00
2022-12-04T01:15:39.751Z,25.90
2022-12-04T01:18:06.859Z,26.73
2022-12-04T01:20:33.644Z,27.07
2022-12-04T01:23:00.503Z,27.43
2022-12-04T01:25:27.323Z,28.17
2022-12-04T01:27:54.057Z,26.27
2022-12-04T01:30:20.782Z,25.53
2022-12-04T01:32:47.368Z,27.97
2022-12-04T01:35:13.980Z,26.80
2022-12-04T01:37:40.598Z,27.37
2022-12-04T01:40:11.436Z,27.60
2022-12-04T01:42:38.019Z,27.40
2022-12-04T01:45:39.031Z,28.00
2022-12-04T01:48:27.440Z,27.43
2022-12-04T01:51:00.055Z,27.50
2022-12-04T01:53:27.066Z,27.80
2022-12-04T01:55:55.246Z,27.30
2022-12-04T01:58:28.459Z,26.73
2022-12-04T02:01:00.789Z,26.83
2022-12-04T02:03:30.383Z,27.73
2022-12-04T02:05:57.058Z,27.10
2022-12-04T02:08:24.232Z,27.80
2022-12-04T02:11:02.773Z,26.87
2022-12-04T02:13:41.954Z,26.87
2022-12-04T02:16:22.495Z,28.17
2022-12-04T02:19:24.918Z,28.10
2022-12-04T02:21:55.356Z,26.87
2022-12-04T02:24:34.100Z,27.60
2022-12-04T02:27:09.005Z,28.57
2022-12-04T02:29:59.330Z,27.87
2022-12-04T02:32:41.080Z,28.80
2022-12-04T02:35:30.186Z,27.13
2022-12-04T02:38:11.839Z,28.73
2022-12-04T02:41:21.813Z,27.43
2022-12-04T02:44:01.653Z,27.57
2022-12-04T02:46:38.545Z,27.40
2022-12-04T02:49:12.058Z,28.53
2022-12-04T02:51:41.289Z,27.03
2022-12-04T02:54:16.448Z,28.03
2022-12-04T02:56:46.497Z,29.57
2022-12-04T02:59:20.135Z,27.37
2022-12-04T03:01:51.896Z,29.60
2022-12-04T03:04:21.596Z,26.77
2022-12-04T03:06:54.939Z,27.37
2022-12-04T03:09:27.613Z,28.63
2022-12-04T03:11:59.642Z,27.43
2022-12-04T03:14:37.214Z,27.20
2022-12-04T03:17:10.316Z,27.37
2022-12-04T03:19:41.602Z,28.23
2022-12-04T03:22:13.491Z,26.97
2022-12-04T03:24:50.837Z,27.03
2022-12-04T03:27:26.034Z,27.77
2022-12-04T03:30:00.351Z,27.10
2022-12-04T03:32:49.431Z,28.03
2022-12-04T03:35:21.928Z,26.50
2022-12-04T03:38:11.261Z,26.77
2022-12-04T03:40:55.736Z,26.30
2022-12-04T03:43:39.445Z,26.90
2022-12-04T03:46:12.481Z,27.07
2022-12-04T03:48:42.980Z,26.63
2022-12-04T03:51:19.622Z,26.93
2022-12-04T03:53:54.758Z,26.90
2022-12-04T03:56:32.960Z,27.57
2022-12-04T03:59:11.183Z,25.60
2022-12-04T04:01:44.472Z,27.70
2022-12-04T04:04:15.640Z,25.30
2022-12-04T04:06:56.929Z,27.13
2022-12-04T04:09:26.437Z,27.00
2022-12-04T04:11:58.617Z,26.03
2022-12-04T04:15:19.720Z,27.80
2022-12-04T04:18:07.757Z,27.40
2022-12-04T04:21:00.825Z,26.50
2022-12-04T04:23:51.460Z,27.27
2022-12-04T04:26:18.706Z,25.93
2022-12-04T04:28:46.336Z,27.23
2022-12-04T04:31:19.071Z,26.77
2022-12-04T04:34:14.567Z,27.30
2022-12-04T04:37:09.947Z,26.50
2022-12-04T04:40:05.717Z,26.27
2022-12-04T04:42:48.425Z,26.23
2022-12-04T04:45:21.559Z,26.50
2022-12-04T04:47:57.808Z,26.27
2022-12-04T04:50:24.902Z,27.30
2022-12-04T04:52:57.622Z,25.73
2022-12-04T04:55:24.346Z,26.80
2022-12-04T04:57:50.965Z,28.10
2022-12-04T05:00:21.097Z,26.20
2022-12-04T05:02:50.026Z,27.40
2022-12-04T05:05:17.861Z,27.13
2022-12-04T05:07:44.588Z,26.73
2022-12-04T05:10:11.296Z,27.23
2022-12-04T05:12:37.950Z,27.97
2022-12-04T05:15:05.329Z,26.90
2022-12-04T05:17:31.915Z,26.80
2022-12-04T05:19:58.819Z,27.97
2022-12-04T05:22:34.693Z,26.40
2022-12-04T05:25:01.915Z,26.67
2022-12-04T05:27:29.958Z,26.83
2022-12-04T05:29:58.408Z,27.40
2022-12-04T05:32:27.675Z,26.13
2022-12-04T05:34:55.565Z,26.97
2022-12-04T05:37:22.968Z,26.87
2022-12-04T05:39:49.629Z,25.77
2022-12-04T05:42:16.274Z,27.53
2022-12-04T05:44:42.911Z,27.13
2022-12-04T05:47:09.546Z,26.90
2022-12-04T05:49:36.170Z,27.60
2022-12-04T05:52:04.838Z,27.23
2022-12-04T05:54:31.582Z,27.33
2022-12-04T05:56:58.180Z,29.13
2022-12-04T05:59:24.809Z,27.50
2022-12-04T06:01:51.462Z,27.43
2022-12-04T06:04:18.094Z,26.83
2022-12-04T06:06:44.816Z,27.77
2022-12-04T06:09:11.931Z,27.90
2022-12-04T06:11:41.135Z,27.20
2022-12-04T06:14:11.017Z,29.50
2022-12-04T06:16:40.773Z,27.53
2022-12-04T06:19:17.605Z,27.87
2022-12-04T06:21:46.684Z,27.83
2022-12-04T06:24:16.170Z,28.33
2022-12-04T06:27:03.891Z,29.20
2022-12-04T06:29:30.162Z,28.20
2022-12-04T06:31:56.811Z,27.50
2022-12-04T06:34:23.481Z,29.80
2022-12-04T06:36:50.072Z,28.47
2022-12-04T06:39:19.031Z,28.83
2022-12-04T06:41:47.404Z,29.63
2022-12-04T06:44:15.626Z,27.27
2022-12-04T06:46:46.890Z,28.63
2022-12-04T06:49:14.432Z,27.67
2022-12-04T06:51:41.078Z,28.60
2022-12-04T06:54:08.874Z,27.93
2022-12-04T06:56:35.765Z,28.40
2022-12-04T06:59:04.103Z,27.50
2022-12-04T07:01:33.331Z,26.93
2022-12-04T07:04:03.303Z,28.33
2022-12-04T07:06:32.918Z,29.10
2022-12-04T07:09:02.809Z,28.77
2022-12-04T07:11:29.963Z,30.20
2022-12-04T07:13:56.681Z,29.07
2022-12-04T07:16:24.872Z,29.70
2022-12-04T07:18:53.821Z,29.90
2022-12-04T07:21:23.393Z,30.47
2022-12-04T07:23:51.695Z,29.13
2022-12-04T07:26:19.177Z,29.60
2022-12-04T07:28:46.280Z,30.50
2022-12-04T07:31:18.848Z,29.07
2022-12-04T07:33:46.259Z,29.70
2022-12-04T07:36:15.419Z,28.73
2022-12-04T07:38:42.577Z,29.47
2022-12-04T07:41:11.176Z,29.30
2022-12-04T07:43:38.113Z,31.20
2022-12-04T07:46:07.425Z,30.00
2022-12-04T07:48:34.361Z,29.67
2022-12-04T07:51:09.272Z,30.47
2022-12-04T07:53:36.355Z,29.73
2022-12-04T07:56:04.616Z,30.07
2022-12-04T07:58:32.029Z,31.67
2022-12-04T08:01:09.815Z,29.53
2022-12-04T08:03:38.935Z,30.90
2022-12-04T08:06:09.405Z,30.23
2022-12-04T08:08:36.733Z,30.00
2022-12-04T08:11:12.363Z,31.37
2022-12-04T08:13:38.942Z,31.40
2022-12-04T08:16:07.097Z,31.27
2022-12-04T08:18:33.998Z,30.50
2022-12-04T08:21:12.437Z,32.23
2022-12-04T08:23:40.661Z,32.00
2022-12-04T08:26:07.849Z,30.20
2022-12-04T08:28:35.063Z,31.07
2022-12-04T08:31:12.413Z,31.77
2022-12-04T08:33:39.832Z,30.67
2022-12-04T08:36:08.495Z,32.10
2022-12-04T08:38:35.573Z,30.47
2022-12-04T08:41:04.019Z,31.43
2022-12-04T08:43:30.990Z,31.33
2022-12-04T08:45:59.615Z,30.97
2022-12-04T08:48:26.901Z,30.27
2022-12-04T08:50:54.203Z,32.70
2022-12-04T08:53:21.272Z,31.10
2022-12-04T08:55:48.134Z,32.40
2022-12-04T08:58:15.018Z,30.70
2022-12-04T09:00:42.318Z,31.47
2022-12-04T09:03:13.454Z,30.57
2022-12-04T09:05:41.399Z,30.67
2022-12-04T09:08:08.229Z,31.40
2022-12-04T09:10:36.107Z,30.77
2022-12-04T09:13:03.354Z,31.60
2022-12-04T09:15:30.289Z,29.23
2022-12-04T09:17:56.982Z,30.67
2022-12-04T09:20:23.714Z,30.27
2022-12-04T09:23:03.573Z,29.37
2022-12-04T09:25:31.680Z,29.90
2022-12-04T09:27:59.034Z,29.77
2022-12-04T09:30:25.660Z,28.33
2022-12-04T09:32:52.337Z,28.87
2022-12-04T09:35:19.022Z,28.47
2022-12-04T09:37:45.687Z,27.57
2022-12-04T09:40:24.962Z,29.07
2022-12-04T09:43:07.734Z,28.73
2022-12-04T09:45:46.934Z,27.67
2022-12-04T09:48:18.556Z,28.87
2022-12-04T09:50:46.425Z,29.00
2022-12-04T09:53:20.831Z,27.77
2022-12-04T09:55:51.415Z,26.63
2022-12-04T09:58:22.688Z,26.70
2022-12-04T10:00:52.075Z,27.47
2022-12-04T10:03:21.960Z,26.77
2022-12-04T10:06:11.806Z,26.10
2022-12-04T10:08:44.855Z,27.23
2022-12-04T10:11:32.350Z,26.43
2022-12-04T10:14:23.276Z,26.47
2022-12-04T10:17:13.283Z,25.80
2022-12-04T10:20:14.998Z,25.53
2022-12-04T10:23:16.259Z,25.07
2022-12-04T10:25:43.750Z,25.00
2022-12-04T10:28:38.994Z,25.73
2022-12-04T10:31:12.441Z,26.47
2022-12-04T10:33:51.635Z,26.00
2022-12-04T10:36:21.566Z,26.70
2022-12-04T10:39:01.875Z,24.70
2022-12-04T10:41:45.299Z,24.93
2022-12-04T10:44:16.659Z,25.77
2022-12-04T10:46:46.230Z,26.00
2022-12-04T10:49:18.381Z,24.30
2022-12-04T10:51:45.772Z,25.37
2022-12-04T10:54:21.855Z,25.83
2022-12-04T10:57:00.909Z,24.70
2022-12-04T10:59:28.788Z,25.43
2022-12-04T11:02:25.915Z,26.37
2022-12-04T11:05:07.892Z,24.70
2022-12-04T11:07:48.237Z,26.53
2022-12-04T11:10:41.465Z,25.73
2022-12-04T11:13:11.088Z,26.23
2022-12-04T11:15:55.374Z,25.97
2022-12-04T11:18:31.386Z,25.97
2022-12-04T11:21:07.187Z,27.20
2022-12-04T11:23:50.103Z,27.33
2022-12-04T11:26:38.074Z,24.93
2022-12-04T11:29:05.847Z,26.77
2022-12-04T11:31:33.045Z,26.37
2022-12-04T11:34:06.699Z,27.57
2022-12-04T11:36:42.636Z,27.77
2022-12-04T11:39:36.145Z,28.03
2022-12-04T11:42:19.501Z,25.90
2022-12-04T11:44:57.689Z,26.70
2022-12-04T11:47:28.720Z,26.70
2022-12-04T11:50:14.118Z,26.87
2022-12-04T11:53:28.694Z,26.57
2022-12-04T11:56:25.197Z,26.90
2022-12-04T11:58:59.620Z,25.53
2022-12-04T12:01:40.548Z,26.63
2022-12-04T12:04:31.763Z,26.33
2022-12-04T12:07:23.037Z,26.23
2022-12-04T12:09:53.254Z,26.47
2022-12-04T12:12:45.518Z,27.10
2022-12-04T12:15:39.500Z,27.00
2022-12-04T12:18:33.560Z,27.03
2022-12-04T12:21:12.650Z,26.47
2022-12-04T12:23:58.761Z,25.73
2022-12-04T12:26:54.729Z,26.50
2022-12-04T12:30:15.865Z,26.03
2022-12-04T12:32:54.645Z,26.00
2022-12-04T12:35:33.992Z,25.70
2022-12-04T12:38:10.528Z,25.90
2022-12-04T12:40:40.218Z,25.60
2022-12-04T12:43:35.681Z,27.33
2022-12-04T12:46:15.232Z,26.30
2022-12-04T12:49:07.287Z,27.07
2022-12-04T12:51:46.945Z,29.20
2022-12-04T12:54:39.441Z,25.60
2022-12-04T12:57:15.286Z,26.67
2022-12-04T12:59:51.709Z,26.97
2022-12-04T13:02:40.705Z,25.80
2022-12-04T13:05:17.347Z,24.63
2022-12-04T13:07:53.013Z,26.10
2022-12-04T13:10:29.147Z,25.20
2022-12-04T13:13:12.006Z,25.83
2022-12-04T13:15:44.598Z,25.33
2022-12-04T13:18:41.557Z,24.73
2022-12-04T13:21:13.898Z,24.27
2022-12-04T13:23:44.824Z,24.87
2022-12-04T13:26:47.706Z,23.60
2022-12-04T13:29:30.402Z,24.10
2022-12-04T13:32:30.031Z,23.77
2022-12-04T13:35:26.219Z,23.40
2022-12-04T13:38:25.763Z,21.70
2022-12-04T13:40:56.694Z,22.83
2022-12-04T13:43:41.475Z,22.87
2022-12-04T13:46:42.554Z,24.43
2022-12-04T13:49:18.045Z,22.90
2022-12-04T13:51:46.294Z,21.97
2022-12-04T13:54:12.866Z,20.97
2022-12-04T13:56:42.104Z,22.87
2022-12-04T13:59:30.456Z,22.00
2022-12-04T14:02:21.899Z,22.63
2022-12-04T14:05:07.964Z,22.30
2022-12-04T14:07:51.035Z,22.03
2022-12-04T14:10:18.133Z,22.90
2022-12-04T14:13:04.349Z,22.10
2022-12-04T14:15:34.919Z,22.50
2022-12-04T14:18:14.804Z,23.53
2022-12-04T14:20:44.348Z,22.77
2022-12-04T14:23:26.535Z,22.33
2022-12-04T14:25:58.748Z,22.63
2022-12-04T14:28:33.100Z,26.30
2022-12-04T14:31:20.155Z,24.07
2022-12-04T14:36:54.792Z,25.00
2022-12-04T14:39:26.586Z,24.47
2022-12-04T14:42:03.781Z,24.20
2022-12-04T14:44:31.860Z,23.73
2022-12-04T14:47:40.053Z,24.03
2022-12-04T14:50:28.457Z,25.37
2022-12-04T14:53:12.588Z,24.77
2022-12-04T14:56:23.095Z,25.20
2022-12-04T14:58:50.245Z,25.70
2022-12-04T15:01:30.674Z,25.27
2022-12-04T15:04:00.159Z,26.10
2022-12-04T15:07:01.003Z,26.10
2022-12-04T15:09:47.583Z,25.90
2022-12-04T15:12:33.566Z,24.63
2022-12-04T15:15:09.755Z,25.87
2022-12-04T15:17:41.602Z,26.77
2022-12-04T15:20:28.860Z,27.00
2022-12-04T15:22:58.722Z,26.13
2022-12-04T15:25:31.416Z,26.73
2022-12-04T15:28:20.931Z,26.27
2022-12-04T15:30:49.886Z,25.13
2022-12-04T15:33:26.408Z,26.17
2022-12-04T15:36:00.201Z,25.67
2022-12-04T15:38:27.475Z,25.60
2022-12-04T15:40:57.501Z,27.20
2022-12-04T15:43:38.855Z,26.47
2022-12-04T15:46:21.974Z,26.87
2022-12-04T15:48:48.738Z,26.90
2022-12-04T15:51:17.023Z,26.90
2022-12-04T15:53:45.806Z,26.30
2022-12-04T15:56:21.065Z,26.23
2022-12-04T15:59:00.779Z,25.60
2022-12-04T16:01:37.476Z,25.43
2022-12-04T16:04:04.183Z,23.93
2022-12-04T16:06:33.542Z,24.87
2022-12-04T16:09:18.164Z,24.27
2022-12-04T16:11:44.823Z,24.80
2022-12-04T16:14:11.425Z,25.20
2022-12-04T16:16:42.113Z,23.27
2022-12-04T16:19:14.729Z,24.37
2022-12-04T16:21:41.367Z,23.47
2022-12-04T16:24:14.393Z,23.27
2022-12-04T16:26:41.543Z,22.93
2022-12-04T16:29:08.281Z,24.63
2022-12-04T16:31:35.389Z,21.73
2022-12-04T16:34:02.059Z,21.87
2022-12-04T16:36:28.791Z,21.40
2022-12-04T16:38:55.437Z,22.53
2022-12-04T16:41:22.222Z,22.30
2022-12-04T16:43:58.591Z,21.50
2022-12-04T16:46:27.294Z,21.83
2022-12-04T16:48:54.576Z,21.33
2022-12-04T16:51:26.566Z,21.90
2022-12-04T16:53:54.299Z,22.00
2022-12-04T16:56:24.115Z,22.83
2022-12-04T16:58:50.846Z,23.23
2022-12-04T17:01:24.249Z,19.63
2022-12-04T17:03:51.518Z,21.30
2022-12-04T17:06:18.566Z,21.53
2022-12-04T17:08:45.355Z,22.60
2022-12-04T17:11:14.452Z,23.17
2022-12-04T17:13:43.243Z,20.87
2022-12-04T17:16:14.590Z,22.20
2022-12-04T17:18:42.362Z,23.13
2022-12-04T17:21:12.691Z,20.13
2022-12-04T17:23:40.630Z,21.07
2022-12-04T17:26:12.267Z,21.80
2022-12-04T17:28:39.780Z,21.07
2022-12-04T17:31:17.059Z,22.00
2022-12-04T17:33:44.219Z,20.73
2022-12-04T17:36:17.983Z,20.50
2022-12-04T17:38:44.760Z,20.17
2022-12-04T17:41:14.033Z,20.77
2022-12-04T17:43:41.989Z,20.37
2022-12-04T17:46:14.338Z,20.67
2022-12-04T17:48:41.932Z,19.53
2022-12-04T17:51:14.835Z,20.80
2022-12-04T17:53:41.554Z,19.73
2022-12-04T17:56:10.735Z,20.03
2022-12-04T17:58:37.545Z,20.33
2022-12-04T18:01:06.403Z,20.63
2022-12-04T18:03:33.727Z,19.20
2022-12-04T18:06:01.370Z,19.70
2022-12-04T18:08:30.743Z,18.40
2022-12-04T18:10:57.591Z,18.07
2022-12-04T18:13:45.024Z,19.23
2022-12-04T18:16:21.855Z,18.63
2022-12-04T18:19:11.295Z,18.00
2022-12-04T18:22:22.678Z,17.90
2022-12-04T18:28:06.234Z,18.30
2022-12-04T18:30:34.141Z,18.13
2022-12-04T18:33:00.723Z,16.97
2022-12-04T18:35:27.352Z,16.73
2022-12-04T18:37:53.942Z,17.63
2022-12-04T18:40:20.528Z,17.70
2022-12-04T18:42:47.159Z,17.50
2022-12-04T18:45:13.839Z,16.93
2022-12-04T18:47:40.465Z,19.80
2022-12-04T18:50:07.439Z,18.03
2022-12-04T18:52:36.767Z,18.07
2022-12-04T18:55:03.533Z,18.67
2022-12-04T18:57:30.162Z,18.50
2022-12-04T18:59:57.018Z,17.93
2022-12-04T19:02:23.984Z,17.60
2022-12-04T19:04:50.792Z,18.60
2022-12-04T19:07:18.653Z,18.03
2022-12-04T19:10:10.344Z,18.60
2022-12-04T19:12:32.491Z,17.37
2022-12-04T19:14:59.156Z,18.83
2022-12-04T19:17:25.731Z,19.40
2022-12-04T19:19:52.336Z,20.97
2022-12-04T19:22:19.063Z,19.23
2022-12-04T19:24:46.862Z,20.17
2022-12-04T19:27:14.055Z,20.20
2022-12-04T19:29:42.390Z,20.90
2022-12-04T19:32:10.674Z,21.10
2022-12-04T19:34:37.977Z,21.40
2022-12-04T19:37:04.802Z,22.07
2022-12-04T19:39:31.486Z,21.83
2022-12-04T19:41:58.104Z,20.77
2022-12-04T19:44:48.361Z,22.37
2022-12-04T19:47:11.279Z,21.57
2022-12-04T19:49:38.119Z,22.17
2022-12-04T19:52:05.460Z,22.97
2022-12-04T19:54:32.240Z,22.43
2022-12-04T19:56:59.054Z,22.47
2022-12-04T19:59:27.146Z,23.20
2022-12-04T20:01:55.301Z,21.67
2022-12-04T20:04:22.126Z,23.57
2022-12-04T20:06:48.758Z,22.20
2022-12-04T20:09:19.399Z,21.53
2022-12-04T20:11:46.476Z,22.10
2022-12-04T20:14:13.469Z,23.00
2022-12-04T20:16:40.783Z,22.50
2022-12-04T20:19:14.356Z,17.57
2022-12-04T20:21:41.223Z,20.77
2022-12-04T20:24:08.195Z,21.50
2022-12-04T20:26:38.132Z,20.67
2022-12-04T20:29:06.711Z,20.17
2022-12-04T20:31:39.154Z,21.13
2022-12-04T20:34:08.615Z,22.63
2022-12-04T20:36:37.956Z,21.90
2022-12-04T20:39:05.758Z,21.73
2022-12-04T20:41:33.554Z,21.50
2022-12-04T20:44:02.442Z,20.87
2022-12-04T20:46:35.772Z,21.70
2022-12-04T20:49:06.191Z,21.03
2022-12-04T20:51:39.313Z,20.80
2022-12-04T20:54:07.358Z,21.03
2022-12-04T20:56:36.696Z,20.57
2022-12-04T20:59:08.089Z,21.07
2022-12-04T21:01:35.474Z,20.90
2022-12-04T21:04:03.986Z,21.70
2022-12-04T21:06:36.885Z,21.33
2022-12-04T21:09:10.486Z,20.33
2022-12-04T21:11:40.281Z,20.80
2022-12-04T21:14:30.294Z,20.43
2022-12-04T21:16:57.407Z,20.10
2022-12-04T21:19:24.773Z,20.87
2022-12-04T21:21:51.772Z,21.00
2022-12-04T21:24:20.968Z,19.77
2022-12-04T21:26:47.914Z,19.27
2022-12-04T21:29:15.447Z,21.03
2022-12-04T21:31:42.131Z,20.03
2022-12-04T21:34:11.875Z,19.33
2022-12-04T21:36:38.871Z,19.80
2022-12-04T21:39:06.958Z,21.87
2022-12-04T21:41:52.322Z,21.60
2022-12-04T21:44:20.093Z,20.50
2022-12-04T21:46:47.600Z,21.97
2022-12-04T21:49:15.547Z,22.20
2022-12-04T21:51:58.894Z,21.63
2022-12-04T21:54:27.416Z,21.60
2022-12-04T21:56:54.829Z,21.93
2022-12-04T21:59:21.701Z,21.87
2022-12-04T22:01:48.476Z,22.43
2022-12-04T22:04:15.535Z,22.20
2022-12-04T22:06:42.465Z,20.40
2022-12-04T22:09:11.510Z,21.30
2022-12-04T22:11:39.010Z,20.13
2022-12-04T22:14:05.670Z,21.03
2022-12-04T22:16:35.756Z,20.83
2022-12-04T22:19:05.021Z,20.23
2022-12-04T22:21:31.597Z,20.77
2022-12-04T22:23:59.801Z,20.83
2022-12-04T22:26:28.036Z,21.10
2022-12-04T22:28:55.167Z,20.70
2022-12-04T22:31:26.229Z,20.33
2022-12-04T22:33:54.793Z,21.77
2022-12-04T22:36:24.885Z,21.90
2022-12-04T22:41:38.234Z,21.33
2022-12-04T22:44:05.331Z,21.20
2022-12-04T22:46:32.599Z,22.00
2022-12-04T22:48:59.885Z,22.97
2022-12-04T22:51:27.283Z,22.07
2022-12-04T22:53:56.903Z,21.37
2022-12-04T22:56:26.016Z,21.50
2022-12-04T22:58:54.037Z,21.13
2022-12-04T23:01:23.361Z,22.23
2022-12-04T23:03:51.106Z,21.43
2022-12-04T23:06:19.830Z,21.40
2022-12-04T23:08:46.751Z,20.80
2022-12-04T23:11:16.332Z,21.03
2022-12-04T23:13:44.205Z,22.40
2022-12-04T23:16:13.266Z,22.47
2022-12-04T23:18:43.659Z,22.27
2022-12-04T23:21:13.495Z,22.60
2022-12-04T23:23:42.036Z,22.27
2022-12-04T23:26:15.798Z,22.37
2022-12-04T23:28:43.006Z,22.03
2022-12-04T23:31:10.894Z,21.13
2022-12-04T23:33:38.553Z,21.07
2022-12-04T23:36:06.824Z,20.97
2022-12-04T23:38:35.299Z,20.43
2022-12-04T23:41:04.093Z,21.73
2022-12-04T23:43:30.792Z,21.23
2022-12-04T23:45:57.510Z,21.80
2022-12-04T23:48:25.357Z,21.53
2022-12-04T23:50:52.261Z,21.60
2022-12-04T23:53:19.494Z,21.63
2022-12-04T23:55:56.267Z,21.63
2022-12-04T23:58:22.919Z,21.17
